sensor_id;sensor_type;location;lat;lon;timestamp;P1;durP1;ratioP1;P2;durP2;ratioP2
37973;SDS011;23796;51.458;7.000;2024-03-06T00:02:07;16.97;;;13.83;;
37973;SDS011;23796;51.458;7.000;2024-03-06T00:04:33;16.83;;;14.95;;
37973;SDS011;23796;51.458;7.000;2024-03-06T00:06:59;17.02;;;14.48;;
37973;SDS011;23796;51.458;7.000;2024-03-06T00:09:27;17.27;;;15.43;;
37973;SDS011;23796;51.458;7.000;2024-03-06T00:11:53;18.55;;;15.07;;
37973;SDS011;23796;51.458;7.000;2024-03-06T00:14:20;17.05;;;14.35;;
37973;SDS011;23796;51.458;7.000;2024-03-06T00:16:49;18.08;;;15.60;;
37973;SDS011;23796;51.458;7.000;2024-03-06T00:19:16;19.00;;;15.57;;
37973;SDS011;23796;51.458;7.000;2024-03-06T00:21:42;17.67;;;15.15;;
37973;SDS011;23796;51.458;7.000;2024-03-06T00:24:07;18.42;;;15.13;;
37973;SDS011;23796;51.458;7.000;2024-03-06T00:26:33;17.63;;;15.38;;
37973;SDS011;23796;51.458;7.000;2024-03-06T00:28:59;18.48;;;15.27;;
37973;SDS011;23796;51.458;7.000;2024-03-06T00:31:24;16.90;;;14.85;;
37973;SDS011;23796;51.458;7.000;2024-03-06T00:33:55;18.38;;;14.80;;
37973;SDS011;23796;51.458;7.000;2024-03-06T00:36:20;17.05;;;14.57;;
37973;SDS011;23796;51.458;7.000;2024-03-06T00:38:47;17.00;;;14.85;;
37973;SDS011;23796;51.458;7.000;2024-03-06T00:41:13;16.60;;;13.68;;
37973;SDS011;23796;51.458;7.000;2024-03-06T00:43:41;17.70;;;14.95;;
37973;SDS011;23796;51.458;7.000;2024-03-06T00:46:09;17.20;;;15.00;;
37973;SDS011;23796;51.458;7.000;2024-03-06T00:48:35;19.15;;;15.95;;
37973;SDS011;23796;51.458;7.000;2024-03-06T00:51:08;20.50;;;17.00;;
37973;SDS011;23796;51.458;7.000;2024-03-06T00:53:34;19.35;;;16.10;;
37973;SDS011;23796;51.458;7.000;2024-03-06T00:56:00;18.63;;;16.08;;
37973;SDS011;23796;51.458;7.000;2024-03-06T00:58:26;18.38;;;16.10;;
37973;SDS011;23796;51.458;7.000;2024-03-06T01:00:51;18.23;;;16.17;;
37973;SDS011;23796;51.458;7.000;2024-03-06T01:03:17;19.08;;;17.05;;
37973;SDS011;23796;51.458;7.000;2024-03-06T01:05:42;19.90;;;17.38;;
37973;SDS011;23796;51.458;7.000;2024-03-06T01:08:08;21.50;;;17.00;;
37973;SDS011;23796;51.458;7.000;2024-03-06T01:10:34;21.77;;;18.08;;
37973;SDS011;23796;51.458;7.000;2024-03-06T01:12:59;19.27;;;16.90;;
37973;SDS011;23796;51.458;7.000;2024-03-06T01:15:25;20.55;;;17.30;;
37973;SDS011;23796;51.458;7.000;2024-03-06T01:17:53;19.80;;;17.73;;
37973;SDS011;23796;51.458;7.000;2024-03-06T01:20:19;20.65;;;16.92;;
37973;SDS011;23796;51.458;7.000;2024-03-06T01:22:45;22.40;;;17.50;;
37973;SDS011;23796;51.458;7.000;2024-03-06T01:25:11;19.67;;;17.23;;
37973;SDS011;23796;51.458;7.000;2024-03-06T01:27:37;19.17;;;16.20;;
37973;SDS011;23796;51.458;7.000;2024-03-06T01:30:05;19.15;;;16.70;;
37973;SDS011;23796;51.458;7.000;2024-03-06T01:32:31;19.50;;;17.15;;
37973;SDS011;23796;51.458;7.000;2024-03-06T01:34:58;18.20;;;16.30;;
37973;SDS011;23796;51.458;7.000;2024-03-06T01:37:24;18.42;;;15.30;;
37973;SDS011;23796;51.458;7.000;2024-03-06T01:39:49;18.50;;;16.45;;
37973;SDS011;23796;51.458;7.000;2024-03-06T01:42:16;20.60;;;17.85;;
37973;SDS011;23796;51.458;7.000;2024-03-06T01:44:43;20.20;;;17.65;;
37973;SDS011;23796;51.458;7.000;2024-03-06T01:47:08;21.67;;;18.23;;
37973;SDS011;23796;51.458;7.000;2024-03-06T01:49:34;20.67;;;18.33;;
37973;SDS011;23796;51.458;7.000;2024-03-06T01:52:00;20.63;;;18.30;;
37973;SDS011;23796;51.458;7.000;2024-03-06T01:54:27;22.38;;;18.85;;
37973;SDS011;23796;51.458;7.000;2024-03-06T01:56:53;19.85;;;17.10;;
37973;SDS011;23796;51.458;7.000;2024-03-06T01:59:20;19.65;;;16.92;;
37973;SDS011;23796;51.458;7.000;2024-03-06T02:01:48;20.33;;;18.02;;
37973;SDS011;23796;51.458;7.000;2024-03-06T02:04:17;19.02;;;17.02;;
37973;SDS011;23796;51.458;7.000;2024-03-06T02:06:43;24.30;;;17.77;;
37973;SDS011;23796;51.458;7.000;2024-03-06T02:09:11;19.13;;;17.02;;
37973;SDS011;23796;51.458;7.000;2024-03-06T02:11:39;21.63;;;17.95;;
37973;SDS011;23796;51.458;7.000;2024-03-06T02:14:07;18.98;;;16.73;;
37973;SDS011;23796;51.458;7.000;2024-03-06T02:16:38;19.70;;;17.48;;
37973;SDS011;23796;51.458;7.000;2024-03-06T02:19:04;19.73;;;17.63;;
37973;SDS011;23796;51.458;7.000;2024-03-06T02:21:30;19.75;;;17.02;;
37973;SDS011;23796;51.458;7.000;2024-03-06T02:23:59;19.63;;;16.70;;
37973;SDS011;23796;51.458;7.000;2024-03-06T02:26:24;19.63;;;16.80;;
37973;SDS011;23796;51.458;7.000;2024-03-06T02:28:50;18.98;;;16.80;;
37973;SDS011;23796;51.458;7.000;2024-03-06T02:31:18;18.20;;;15.65;;
37973;SDS011;23796;51.458;7.000;2024-03-06T02:33:44;19.20;;;17.17;;
37973;SDS011;23796;51.458;7.000;2024-03-06T02:36:12;17.92;;;16.02;;
37973;SDS011;23796;51.458;7.000;2024-03-06T02:38:38;18.50;;;16.08;;
37973;SDS011;23796;51.458;7.000;2024-03-06T02:41:03;19.20;;;16.48;;
37973;SDS011;23796;51.458;7.000;2024-03-06T02:43:35;19.65;;;17.55;;
37973;SDS011;23796;51.458;7.000;2024-03-06T02:46:01;19.15;;;17.05;;
37973;SDS011;23796;51.458;7.000;2024-03-06T02:48:29;19.05;;;17.05;;
37973;SDS011;23796;51.458;7.000;2024-03-06T02:50:55;18.02;;;15.85;;
37973;SDS011;23796;51.458;7.000;2024-03-06T02:53:21;19.90;;;16.77;;
37973;SDS011;23796;51.458;7.000;2024-03-06T02:55:49;19.13;;;16.55;;
37973;SDS011;23796;51.458;7.000;2024-03-06T02:58:15;20.33;;;17.40;;
37973;SDS011;23796;51.458;7.000;2024-03-06T03:00:46;20.50;;;17.27;;
37973;SDS011;23796;51.458;7.000;2024-03-06T03:03:12;18.70;;;16.35;;
37973;SDS011;23796;51.458;7.000;2024-03-06T03:05:38;19.45;;;16.40;;
37973;SDS011;23796;51.458;7.000;2024-03-06T03:08:04;18.77;;;16.55;;
37973;SDS011;23796;51.458;7.000;2024-03-06T03:10:33;20.95;;;17.05;;
37973;SDS011;23796;51.458;7.000;2024-03-06T03:12:59;19.95;;;17.83;;
37973;SDS011;23796;51.458;7.000;2024-03-06T03:15:25;21.00;;;17.55;;
37973;SDS011;23796;51.458;7.000;2024-03-06T03:17:51;19.45;;;17.20;;
37973;SDS011;23796;51.458;7.000;2024-03-06T03:20:16;18.65;;;16.65;;
37973;SDS011;23796;51.458;7.000;2024-03-06T03:22:42;19.83;;;17.10;;
37973;SDS011;23796;51.458;7.000;2024-03-06T03:25:09;19.90;;;16.77;;
37973;SDS011;23796;51.458;7.000;2024-03-06T03:27:38;19.55;;;17.40;;
37973;SDS011;23796;51.458;7.000;2024-03-06T03:30:09;20.65;;;18.13;;
37973;SDS011;23796;51.458;7.000;2024-03-06T03:32:35;20.27;;;17.70;;
37973;SDS011;23796;51.458;7.000;2024-03-06T03:35:02;19.17;;;17.08;;
37973;SDS011;23796;51.458;7.000;2024-03-06T03:37:30;20.45;;;17.90;;
37973;SDS011;23796;51.458;7.000;2024-03-06T03:39:56;18.95;;;16.80;;
37973;SDS011;23796;51.458;7.000;2024-03-06T03:42:21;20.13;;;17.73;;
37973;SDS011;23796;51.458;7.000;2024-03-06T03:44:47;21.20;;;17.75;;
37973;SDS011;23796;51.458;7.000;2024-03-06T03:47:12;22.40;;;18.25;;
37973;SDS011;23796;51.458;7.000;2024-03-06T03:49:38;20.15;;;17.75;;
37973;SDS011;23796;51.458;7.000;2024-03-06T03:52:04;18.65;;;16.60;;
37973;SDS011;23796;51.458;7.000;2024-03-06T03:54:29;19.45;;;16.88;;
37973;SDS011;23796;51.458;7.000;2024-03-06T03:56:55;19.65;;;16.63;;
37973;SDS011;23796;51.458;7.000;2024-03-06T03:59:21;19.23;;;17.23;;
37973;SDS011;23796;51.458;7.000;2024-03-06T04:01:46;20.10;;;17.73;;
37973;SDS011;23796;51.458;7.000;2024-03-06T04:04:12;19.25;;;17.15;;
37973;SDS011;23796;51.458;7.000;2024-03-06T04:06:38;20.02;;;17.60;;
37973;SDS011;23796;51.458;7.000;2024-03-06T04:09:03;20.42;;;17.77;;
37973;SDS011;23796;51.458;7.000;2024-03-06T04:11:34;19.25;;;17.17;;
37973;SDS011;23796;51.458;7.000;2024-03-06T04:14:03;20.25;;;17.85;;
37973;SDS011;23796;51.458;7.000;2024-03-06T04:16:29;20.38;;;17.88;;
37973;SDS011;23796;51.458;7.000;2024-03-06T04:18:55;20.13;;;17.95;;
37973;SDS011;23796;51.458;7.000;2024-03-06T04:21:20;21.45;;;18.00;;
37973;SDS011;23796;51.458;7.000;2024-03-06T04:23:47;19.65;;;17.55;;
37973;SDS011;23796;51.458;7.000;2024-03-06T04:26:13;22.02;;;18.35;;
37973;SDS011;23796;51.458;7.000;2024-03-06T04:28:39;21.08;;;18.77;;
37973;SDS011;23796;51.458;7.000;2024-03-06T04:31:05;21.88;;;19.45;;
37973;SDS011;23796;51.458;7.000;2024-03-06T04:33:33;23.67;;;19.65;;
37973;SDS011;23796;51.458;7.000;2024-03-06T04:36:04;22.70;;;19.67;;
37973;SDS011;23796;51.458;7.000;2024-03-06T04:38:30;23.38;;;18.10;;
37973;SDS011;23796;51.458;7.000;2024-03-06T04:40:56;26.05;;;22.02;;
37973;SDS011;23796;51.458;7.000;2024-03-06T04:43:22;25.42;;;19.90;;
37973;SDS011;23796;51.458;7.000;2024-03-06T04:45:50;23.25;;;20.20;;
37973;SDS011;23796;51.458;7.000;2024-03-06T04:48:16;26.00;;;19.60;;
37973;SDS011;23796;51.458;7.000;2024-03-06T04:50:42;23.80;;;20.75;;
37973;SDS011;23796;51.458;7.000;2024-03-06T04:53:08;24.63;;;20.10;;
37973;SDS011;23796;51.458;7.000;2024-03-06T04:55:33;22.85;;;19.75;;
37973;SDS011;23796;51.458;7.000;2024-03-06T04:58:02;23.00;;;19.23;;
37973;SDS011;23796;51.458;7.000;2024-03-06T05:00:28;22.02;;;18.88;;
37973;SDS011;23796;51.458;7.000;2024-03-06T05:02:54;23.55;;;19.55;;
37973;SDS011;23796;51.458;7.000;2024-03-06T05:05:20;24.08;;;20.90;;
37973;SDS011;23796;51.458;7.000;2024-03-06T05:07:46;25.10;;;20.98;;
37973;SDS011;23796;51.458;7.000;2024-03-06T05:10:14;23.60;;;19.85;;
37973;SDS011;23796;51.458;7.000;2024-03-06T05:12:43;21.58;;;18.67;;
37973;SDS011;23796;51.458;7.000;2024-03-06T05:15:09;23.42;;;19.73;;
37973;SDS011;23796;51.458;7.000;2024-03-06T05:17:35;21.90;;;18.40;;
37973;SDS011;23796;51.458;7.000;2024-03-06T05:20:01;22.05;;;18.73;;
37973;SDS011;23796;51.458;7.000;2024-03-06T05:22:28;24.63;;;19.98;;
37973;SDS011;23796;51.458;7.000;2024-03-06T05:24:54;22.45;;;19.45;;
37973;SDS011;23796;51.458;7.000;2024-03-06T05:27:20;21.70;;;18.50;;
37973;SDS011;23796;51.458;7.000;2024-03-06T05:29:48;24.90;;;19.65;;
37973;SDS011;23796;51.458;7.000;2024-03-06T05:32:14;23.00;;;19.02;;
37973;SDS011;23796;51.458;7.000;2024-03-06T05:34:39;21.35;;;17.10;;
37973;SDS011;23796;51.458;7.000;2024-03-06T05:37:05;20.85;;;16.95;;
37973;SDS011;23796;51.458;7.000;2024-03-06T05:39:31;19.98;;;17.05;;
37973;SDS011;23796;51.458;7.000;2024-03-06T05:42:01;21.45;;;18.27;;
37973;SDS011;23796;51.458;7.000;2024-03-06T05:44:30;22.42;;;17.42;;
37973;SDS011;23796;51.458;7.000;2024-03-06T05:46:57;20.83;;;17.80;;
37973;SDS011;23796;51.458;7.000;2024-03-06T05:49:23;26.65;;;18.40;;
37973;SDS011;23796;51.458;7.000;2024-03-06T05:51:51;23.13;;;17.48;;
37973;SDS011;23796;51.458;7.000;2024-03-06T05:54:17;23.63;;;18.30;;
37973;SDS011;23796;51.458;7.000;2024-03-06T05:56:47;21.70;;;17.50;;
37973;SDS011;23796;51.458;7.000;2024-03-06T05:59:17;26.35;;;20.00;;
37973;SDS011;23796;51.458;7.000;2024-03-06T06:01:43;23.50;;;19.77;;
37973;SDS011;23796;51.458;7.000;2024-03-06T06:04:09;24.38;;;20.30;;
37973;SDS011;23796;51.458;7.000;2024-03-06T06:06:35;24.88;;;19.33;;
37973;SDS011;23796;51.458;7.000;2024-03-06T06:09:00;22.88;;;19.70;;
37973;SDS011;23796;51.458;7.000;2024-03-06T06:11:29;24.60;;;20.10;;
37973;SDS011;23796;51.458;7.000;2024-03-06T06:13:58;24.52;;;20.40;;
37973;SDS011;23796;51.458;7.000;2024-03-06T06:16:26;23.92;;;20.77;;
37973;SDS011;23796;51.458;7.000;2024-03-06T06:18:51;27.45;;;20.70;;
37973;SDS011;23796;51.458;7.000;2024-03-06T06:21:17;28.27;;;22.25;;
37973;SDS011;23796;51.458;7.000;2024-03-06T06:23:43;26.90;;;21.02;;
37973;SDS011;23796;51.458;7.000;2024-03-06T06:26:09;25.92;;;20.30;;
37973;SDS011;23796;51.458;7.000;2024-03-06T06:28:35;24.73;;;20.88;;
37973;SDS011;23796;51.458;7.000;2024-03-06T06:31:02;27.40;;;21.02;;
37973;SDS011;23796;51.458;7.000;2024-03-06T06:33:29;28.65;;;21.73;;
37973;SDS011;23796;51.458;7.000;2024-03-06T06:35:54;29.00;;;22.80;;
37973;SDS011;23796;51.458;7.000;2024-03-06T06:38:20;29.00;;;22.42;;
37973;SDS011;23796;51.458;7.000;2024-03-06T06:40:49;29.45;;;23.42;;
37973;SDS011;23796;51.458;7.000;2024-03-06T06:43:15;27.05;;;22.85;;
37973;SDS011;23796;51.458;7.000;2024-03-06T06:45:41;28.98;;;22.10;;
37973;SDS011;23796;51.458;7.000;2024-03-06T06:48:07;29.40;;;22.58;;
37973;SDS011;23796;51.458;7.000;2024-03-06T06:50:34;30.02;;;23.98;;
37973;SDS011;23796;51.458;7.000;2024-03-06T06:52:59;27.20;;;22.92;;
37973;SDS011;23796;51.458;7.000;2024-03-06T06:55:25;31.73;;;24.48;;
37973;SDS011;23796;51.458;7.000;2024-03-06T06:57:51;28.90;;;23.33;;
37973;SDS011;23796;51.458;7.000;2024-03-06T07:00:17;28.67;;;23.27;;
37973;SDS011;23796;51.458;7.000;2024-03-06T07:02:43;29.52;;;24.45;;
37973;SDS011;23796;51.458;7.000;2024-03-06T07:05:12;50.88;;;39.72;;
37973;SDS011;23796;51.458;7.000;2024-03-06T07:07:37;33.80;;;27.25;;
37973;SDS011;23796;51.458;7.000;2024-03-06T07:10:06;41.20;;;31.58;;
37973;SDS011;23796;51.458;7.000;2024-03-06T07:12:33;33.10;;;26.15;;
37973;SDS011;23796;51.458;7.000;2024-03-06T07:15:01;34.85;;;26.85;;
37973;SDS011;23796;51.458;7.000;2024-03-06T07:17:29;32.67;;;25.42;;
37973;SDS011;23796;51.458;7.000;2024-03-06T07:19:55;37.03;;;27.92;;
37973;SDS011;23796;51.458;7.000;2024-03-06T07:22:22;38.30;;;30.27;;
37973;SDS011;23796;51.458;7.000;2024-03-06T07:24:48;32.78;;;28.15;;
37973;SDS011;23796;51.458;7.000;2024-03-06T07:27:16;34.42;;;27.15;;
37973;SDS011;23796;51.458;7.000;2024-03-06T07:29:43;37.60;;;27.27;;
37973;SDS011;23796;51.458;7.000;2024-03-06T07:32:11;36.15;;;27.63;;
37973;SDS011;23796;51.458;7.000;2024-03-06T07:34:41;33.80;;;25.55;;
37973;SDS011;23796;51.458;7.000;2024-03-06T07:37:07;34.78;;;26.70;;
37973;SDS011;23796;51.458;7.000;2024-03-06T07:39:32;33.63;;;26.77;;
37973;SDS011;23796;51.458;7.000;2024-03-06T07:41:59;32.60;;;25.45;;
37973;SDS011;23796;51.458;7.000;2024-03-06T07:44:27;38.85;;;27.63;;
37973;SDS011;23796;51.458;7.000;2024-03-06T07:46:53;34.97;;;26.48;;
37973;SDS011;23796;51.458;7.000;2024-03-06T07:49:19;39.45;;;27.73;;
37973;SDS011;23796;51.458;7.000;2024-03-06T07:51:47;35.70;;;28.08;;
37973;SDS011;23796;51.458;7.000;2024-03-06T07:54:12;33.47;;;25.98;;
37973;SDS011;23796;51.458;7.000;2024-03-06T07:56:41;30.58;;;24.38;;
37973;SDS011;23796;51.458;7.000;2024-03-06T07:59:06;32.75;;;23.85;;
37973;SDS011;23796;51.458;7.000;2024-03-06T08:01:32;29.52;;;22.48;;
37973;SDS011;23796;51.458;7.000;2024-03-06T08:04:00;29.02;;;23.45;;
37973;SDS011;23796;51.458;7.000;2024-03-06T08:06:25;30.67;;;24.95;;
37973;SDS011;23796;51.458;7.000;2024-03-06T08:08:54;29.95;;;24.50;;
37973;SDS011;23796;51.458;7.000;2024-03-06T08:11:20;30.63;;;24.77;;
37973;SDS011;23796;51.458;7.000;2024-03-06T08:13:46;27.63;;;22.83;;
37973;SDS011;23796;51.458;7.000;2024-03-06T08:16:13;31.90;;;24.33;;
37973;SDS011;23796;51.458;7.000;2024-03-06T08:18:39;30.13;;;24.55;;
37973;SDS011;23796;51.458;7.000;2024-03-06T08:21:07;35.90;;;25.77;;
37973;SDS011;23796;51.458;7.000;2024-03-06T08:23:35;35.97;;;26.90;;
37973;SDS011;23796;51.458;7.000;2024-03-06T08:26:00;33.78;;;26.27;;
37973;SDS011;23796;51.458;7.000;2024-03-06T08:28:26;33.72;;;26.80;;
37973;SDS011;23796;51.458;7.000;2024-03-06T08:30:52;37.35;;;28.52;;
37973;SDS011;23796;51.458;7.000;2024-03-06T08:33:20;35.20;;;28.35;;
37973;SDS011;23796;51.458;7.000;2024-03-06T08:35:47;36.40;;;29.23;;
37973;SDS011;23796;51.458;7.000;2024-03-06T08:38:13;38.30;;;28.70;;
37973;SDS011;23796;51.458;7.000;2024-03-06T08:40:42;39.63;;;28.58;;
37973;SDS011;23796;51.458;7.000;2024-03-06T08:43:10;37.78;;;28.77;;
37973;SDS011;23796;51.458;7.000;2024-03-06T08:45:40;33.40;;;25.35;;
37973;SDS011;23796;51.458;7.000;2024-03-06T08:48:08;31.20;;;26.40;;
37973;SDS011;23796;51.458;7.000;2024-03-06T08:50:34;33.15;;;26.45;;
37973;SDS011;23796;51.458;7.000;2024-03-06T08:53:00;34.47;;;27.23;;
37973;SDS011;23796;51.458;7.000;2024-03-06T08:55:27;34.45;;;26.70;;
37973;SDS011;23796;51.458;7.000;2024-03-06T08:57:53;30.73;;;24.73;;
37973;SDS011;23796;51.458;7.000;2024-03-06T09:00:19;35.28;;;25.17;;
37973;SDS011;23796;51.458;7.000;2024-03-06T09:02:44;32.63;;;24.45;;
37973;SDS011;23796;51.458;7.000;2024-03-06T09:05:10;32.63;;;24.27;;
37973;SDS011;23796;51.458;7.000;2024-03-06T09:07:39;32.10;;;24.38;;
37973;SDS011;23796;51.458;7.000;2024-03-06T09:10:08;27.95;;;23.08;;
37973;SDS011;23796;51.458;7.000;2024-03-06T09:12:34;27.52;;;22.63;;
37973;SDS011;23796;51.458;7.000;2024-03-06T09:15:01;32.88;;;24.08;;
37973;SDS011;23796;51.458;7.000;2024-03-06T09:17:27;32.55;;;25.83;;
37973;SDS011;23796;51.458;7.000;2024-03-06T09:19:53;31.33;;;24.70;;
37973;SDS011;23796;51.458;7.000;2024-03-06T09:22:19;32.10;;;24.60;;
37973;SDS011;23796;51.458;7.000;2024-03-06T09:24:45;32.63;;;25.33;;
37973;SDS011;23796;51.458;7.000;2024-03-06T09:27:10;33.50;;;26.13;;
37973;SDS011;23796;51.458;7.000;2024-03-06T09:29:39;31.55;;;25.92;;
37973;SDS011;23796;51.458;7.000;2024-03-06T09:32:05;32.80;;;26.35;;
37973;SDS011;23796;51.458;7.000;2024-03-06T09:34:33;33.30;;;25.27;;
37973;SDS011;23796;51.458;7.000;2024-03-06T09:36:58;33.15;;;26.13;;
37973;SDS011;23796;51.458;7.000;2024-03-06T09:39:27;33.17;;;26.95;;
37973;SDS011;23796;51.458;7.000;2024-03-06T09:41:53;32.97;;;26.15;;
37973;SDS011;23796;51.458;7.000;2024-03-06T09:44:20;37.58;;;25.95;;
37973;SDS011;23796;51.458;7.000;2024-03-06T09:46:47;31.35;;;25.38;;
37973;SDS011;23796;51.458;7.000;2024-03-06T09:49:14;34.33;;;25.45;;
37973;SDS011;23796;51.458;7.000;2024-03-06T09:51:45;40.58;;;26.38;;
37973;SDS011;23796;51.458;7.000;2024-03-06T09:54:15;35.03;;;26.48;;
37973;SDS011;23796;51.458;7.000;2024-03-06T09:56:42;32.38;;;26.67;;
37973;SDS011;23796;51.458;7.000;2024-03-06T09:59:16;31.38;;;25.10;;
37973;SDS011;23796;51.458;7.000;2024-03-06T10:01:54;32.67;;;26.15;;
37973;SDS011;23796;51.458;7.000;2024-03-06T10:04:24;31.48;;;25.77;;
37973;SDS011;23796;51.458;7.000;2024-03-06T10:06:55;33.08;;;26.13;;
37973;SDS011;23796;51.458;7.000;2024-03-06T10:09:20;30.92;;;25.48;;
37973;SDS011;23796;51.458;7.000;2024-03-06T10:11:46;31.33;;;25.63;;
37973;SDS011;23796;51.458;7.000;2024-03-06T10:14:12;33.15;;;26.17;;
37973;SDS011;23796;51.458;7.000;2024-03-06T10:16:51;30.33;;;24.80;;
37973;SDS011;23796;51.458;7.000;2024-03-06T10:19:22;31.50;;;25.80;;
37973;SDS011;23796;51.458;7.000;2024-03-06T10:21:50;31.27;;;25.20;;
37973;SDS011;23796;51.458;7.000;2024-03-06T10:24:19;29.83;;;26.05;;
37973;SDS011;23796;51.458;7.000;2024-03-06T10:26:46;32.92;;;25.42;;
37973;SDS011;23796;51.458;7.000;2024-03-06T10:29:15;30.05;;;25.73;;
37973;SDS011;23796;51.458;7.000;2024-03-06T10:31:47;28.67;;;24.80;;
37973;SDS011;23796;51.458;7.000;2024-03-06T10:34:23;31.55;;;26.45;;
37973;SDS011;23796;51.458;7.000;2024-03-06T10:36:56;29.38;;;25.13;;
37973;SDS011;23796;51.458;7.000;2024-03-06T10:39:26;32.72;;;25.85;;
37973;SDS011;23796;51.458;7.000;2024-03-06T10:41:55;31.10;;;25.88;;
37973;SDS011;23796;51.458;7.000;2024-03-06T10:44:22;30.50;;;26.88;;
37973;SDS011;23796;51.458;7.000;2024-03-06T10:46:51;30.25;;;25.95;;
37973;SDS011;23796;51.458;7.000;2024-03-06T10:49:22;27.60;;;24.52;;
37973;SDS011;23796;51.458;7.000;2024-03-06T10:51:49;32.20;;;27.15;;
37973;SDS011;23796;51.458;7.000;2024-03-06T10:54:16;33.97;;;27.48;;
37973;SDS011;23796;51.458;7.000;2024-03-06T10:56:41;31.77;;;26.00;;
37973;SDS011;23796;51.458;7.000;2024-03-06T10:59:11;30.67;;;26.65;;
37973;SDS011;23796;51.458;7.000;2024-03-06T11:01:42;30.17;;;26.80;;
37973;SDS011;23796;51.458;7.000;2024-03-06T11:04:10;31.17;;;26.05;;
37973;SDS011;23796;51.458;7.000;2024-03-06T11:06:37;32.53;;;27.05;;
37973;SDS011;23796;51.458;7.000;2024-03-06T11:09:03;33.95;;;28.50;;
37973;SDS011;23796;51.458;7.000;2024-03-06T11:11:29;34.28;;;27.92;;
37973;SDS011;23796;51.458;7.000;2024-03-06T11:14:03;33.05;;;28.48;;
37973;SDS011;23796;51.458;7.000;2024-03-06T11:16:30;35.10;;;27.88;;
37973;SDS011;23796;51.458;7.000;2024-03-06T11:19:08;32.75;;;27.38;;
37973;SDS011;23796;51.458;7.000;2024-03-06T11:21:34;30.33;;;25.92;;
37973;SDS011;23796;51.458;7.000;2024-03-06T11:24:20;31.17;;;25.92;;
37973;SDS011;23796;51.458;7.000;2024-03-06T11:29:16;29.60;;;25.77;;
37973;SDS011;23796;51.458;7.000;2024-03-06T11:32:00;32.58;;;26.75;;
37973;SDS011;23796;51.458;7.000;2024-03-06T11:34:35;27.63;;;24.65;;
37973;SDS011;23796;51.458;7.000;2024-03-06T11:37:04;31.92;;;27.20;;
37973;SDS011;23796;51.458;7.000;2024-03-06T11:39:35;29.83;;;25.88;;
37973;SDS011;23796;51.458;7.000;2024-03-06T11:42:02;31.55;;;25.48;;
37973;SDS011;23796;51.458;7.000;2024-03-06T11:44:33;29.67;;;24.85;;
37973;SDS011;23796;51.458;7.000;2024-03-06T11:47:01;30.13;;;25.25;;
37973;SDS011;23796;51.458;7.000;2024-03-06T11:49:29;26.73;;;23.80;;
37973;SDS011;23796;51.458;7.000;2024-03-06T11:52:05;26.75;;;22.85;;
37973;SDS011;23796;51.458;7.000;2024-03-06T11:54:33;24.70;;;21.98;;
37973;SDS011;23796;51.458;7.000;2024-03-06T11:57:00;23.63;;;21.05;;
37973;SDS011;23796;51.458;7.000;2024-03-06T11:59:34;25.42;;;22.67;;
37973;SDS011;23796;51.458;7.000;2024-03-06T12:02:01;24.55;;;21.27;;
37973;SDS011;23796;51.458;7.000;2024-03-06T12:04:30;25.50;;;20.80;;
37973;SDS011;23796;51.458;7.000;2024-03-06T12:06:57;25.42;;;21.90;;
37973;SDS011;23796;51.458;7.000;2024-03-06T12:09:33;21.52;;;18.88;;
37973;SDS011;23796;51.458;7.000;2024-03-06T12:11:59;20.55;;;18.40;;
37973;SDS011;23796;51.458;7.000;2024-03-06T12:14:25;22.77;;;17.48;;
37973;SDS011;23796;51.458;7.000;2024-03-06T12:16:58;22.00;;;18.75;;
37973;SDS011;23796;51.458;7.000;2024-03-06T12:19:32;19.40;;;17.30;;
37973;SDS011;23796;51.458;7.000;2024-03-06T12:22:04;20.13;;;18.02;;
37973;SDS011;23796;51.458;7.000;2024-03-06T12:24:30;22.25;;;17.40;;
37973;SDS011;23796;51.458;7.000;2024-03-06T12:27:00;20.33;;;17.35;;
37973;SDS011;23796;51.458;7.000;2024-03-06T12:29:27;18.48;;;16.48;;
37973;SDS011;23796;51.458;7.000;2024-03-06T12:31:54;19.58;;;16.80;;
37973;SDS011;23796;51.458;7.000;2024-03-06T12:34:22;23.00;;;17.55;;
37973;SDS011;23796;51.458;7.000;2024-03-06T12:36:47;19.75;;;16.77;;
37973;SDS011;23796;51.458;7.000;2024-03-06T12:39:14;19.00;;;16.90;;
37973;SDS011;23796;51.458;7.000;2024-03-06T12:44:11;17.95;;;15.82;;
37973;SDS011;23796;51.458;7.000;2024-03-06T12:46:37;17.55;;;15.55;;
37973;SDS011;23796;51.458;7.000;2024-03-06T12:49:02;20.35;;;16.80;;
37973;SDS011;23796;51.458;7.000;2024-03-06T12:51:28;20.00;;;16.95;;
37973;SDS011;23796;51.458;7.000;2024-03-06T12:53:57;21.33;;;17.58;;
37973;SDS011;23796;51.458;7.000;2024-03-06T12:56:23;19.15;;;17.02;;
37973;SDS011;23796;51.458;7.000;2024-03-06T12:58:52;22.85;;;19.17;;
37973;SDS011;23796;51.458;7.000;2024-03-06T13:01:18;19.83;;;17.25;;
37973;SDS011;23796;51.458;7.000;2024-03-06T13:03:45;21.58;;;18.60;;
37973;SDS011;23796;51.458;7.000;2024-03-06T13:06:10;19.58;;;17.20;;
37973;SDS011;23796;51.458;7.000;2024-03-06T13:08:36;19.50;;;17.27;;
37973;SDS011;23796;51.458;7.000;2024-03-06T13:11:02;19.15;;;17.08;;
37973;SDS011;23796;51.458;7.000;2024-03-06T13:13:28;21.83;;;18.15;;
37973;SDS011;23796;51.458;7.000;2024-03-06T13:15:55;20.70;;;16.50;;
37973;SDS011;23796;51.458;7.000;2024-03-06T13:18:21;17.67;;;15.55;;
37973;SDS011;23796;51.458;7.000;2024-03-06T13:20:50;18.85;;;15.85;;
37973;SDS011;23796;51.458;7.000;2024-03-06T13:23:16;20.10;;;16.77;;
37973;SDS011;23796;51.458;7.000;2024-03-06T13:25:42;18.92;;;15.80;;
37973;SDS011;23796;51.458;7.000;2024-03-06T13:28:11;19.40;;;15.70;;
37973;SDS011;23796;51.458;7.000;2024-03-06T13:30:37;18.58;;;15.15;;
37973;SDS011;23796;51.458;7.000;2024-03-06T13:33:04;17.15;;;15.35;;
37973;SDS011;23796;51.458;7.000;2024-03-06T13:35:30;17.63;;;14.45;;
37973;SDS011;23796;51.458;7.000;2024-03-06T13:37:56;16.00;;;14.15;;
37973;SDS011;23796;51.458;7.000;2024-03-06T13:40:21;16.30;;;14.05;;
37973;SDS011;23796;51.458;7.000;2024-03-06T13:42:47;16.00;;;13.73;;
37973;SDS011;23796;51.458;7.000;2024-03-06T13:45:15;18.63;;;14.57;;
37973;SDS011;23796;51.458;7.000;2024-03-06T13:47:41;21.65;;;17.65;;
37973;SDS011;23796;51.458;7.000;2024-03-06T13:50:08;21.90;;;18.80;;
37973;SDS011;23796;51.458;7.000;2024-03-06T13:52:38;20.00;;;17.65;;
37973;SDS011;23796;51.458;7.000;2024-03-06T13:55:04;20.40;;;18.05;;
37973;SDS011;23796;51.458;7.000;2024-03-06T13:57:33;20.38;;;17.58;;
37973;SDS011;23796;51.458;7.000;2024-03-06T14:02:37;20.88;;;17.10;;
37973;SDS011;23796;51.458;7.000;2024-03-06T14:05:02;19.35;;;17.05;;
37973;SDS011;23796;51.458;7.000;2024-03-06T14:07:28;18.90;;;16.88;;
37973;SDS011;23796;51.458;7.000;2024-03-06T14:09:54;19.70;;;16.95;;
37973;SDS011;23796;51.458;7.000;2024-03-06T14:12:22;22.35;;;18.95;;
37973;SDS011;23796;51.458;7.000;2024-03-06T14:14:47;21.98;;;19.77;;
37973;SDS011;23796;51.458;7.000;2024-03-06T14:17:13;23.25;;;20.88;;
37973;SDS011;23796;51.458;7.000;2024-03-06T14:19:39;23.45;;;19.80;;
37973;SDS011;23796;51.458;7.000;2024-03-06T14:22:05;23.00;;;20.65;;
37973;SDS011;23796;51.458;7.000;2024-03-06T14:24:32;21.48;;;19.27;;
37973;SDS011;23796;51.458;7.000;2024-03-06T14:26:57;22.17;;;19.98;;
37973;SDS011;23796;51.458;7.000;2024-03-06T14:29:23;20.65;;;17.58;;